Time;durP1;ratioP1;P1;durP2;ratioP2;P2;SDS_P1;SDS_P2;PMS_P1;PMS_P2;Temp;Humidity;BMP_temperature;BMP_pressure;BME280_temperature;BME280_humidity;BME280_pressure;Samples;Min_cycle;Max_cycle;Signal;HPM_P1;HPM_P2
2021/04/03 00:01:40;;;;;;;13.75;5.10;;;7.40;56.30;;;;;;5026954;28;20198;-91
2021/04/03 00:04:06;;;;;;;15.47;4.63;;;5.60;58.40;;;;;;5025320;28;20168;-91
2021/04/03 00:06:37;;;;;;;16.17;6.27;;;6.00;59.60;;;;;;5025531;28;20180;-91
2021/04/03 00:09:03;;;;;;;15.95;5.65;;;6.60;57.30;;;;;;5024448;28;20435;-89
2021/04/03 00:11:29;;;;;;;9.35;4.57;;;7.70;61.90;;;;;;5022373;28;20168;-91
2021/04/03 00:13:55;;;;;;;10.40;5.28;;;6.30;59.30;;;;;;5023097;28;20191;-91
2021/04/03 00:16:24;;;;;;;12.13;5.47;;;9.60;61.00;;;;;;5024930;28;20176;-91
2021/04/03 00:18:52;;;;;;;8.13;4.30;;;8.00;62.10;;;;;;5022722;28;20173;-91
2021/04/03 00:21:20;;;;;;;13.13;5.95;;;6.00;59.70;;;;;;5027383;28;20423;-91
2021/04/03 00:23:47;;;;;;;17.57;7.93;;;9.00;63.40;;;;;;5025709;28;20212;-90
2021/04/03 00:26:14;;;;;;;13.05;4.85;;;6.80;60.80;;;;;;5025764;28;20176;-90
2021/04/03 00:28:40;;;;;;;9.88;4.70;;;6.50;62.90;;;;;;5022552;28;20172;-91
2021/04/03 00:31:05;;;;;;;12.10;5.10;;;8.90;60.50;;;;;;5024399;28;20176;-89
2021/04/03 00:33:32;;;;;;;20.63;6.80;;;8.40;65.10;;;;;;5024477;28;20176;-91
2021/04/03 00:35:57;;;;;;;10.57;5.80;;;8.30;60.70;;;;;;5023306;28;20211;-91
2021/04/03 00:38:23;;;;;;;17.25;5.65;;;9.00;62.30;;;;;;5024281;28;20173;-91
2021/04/03 00:40:50;;;;;;;14.23;6.43;;;8.10;59.00;;;;;;5018943;28;20164;-91
2021/04/03 00:43:20;;;;;;;12.18;5.30;;;5.90;57.90;;;;;;5023576;28;20293;-91
2021/04/03 00:45:47;;;;;;;20.70;6.13;;;8.40;57.80;;;;;;5023031;28;20169;-91
2021/04/03 00:48:13;;;;;;;22.27;8.05;;;7.00;58.30;;;;;;5022761;28;20175;-90
2021/04/03 00:50:45;;;;;;;16.88;5.63;;;6.80;59.00;;;;;;5018955;28;20173;-90
2021/04/03 00:53:14;;;;;;;12.80;6.00;;;5.50;56.40;;;;;;5025412;28;20181;-91
2021/04/03 00:55:41;;;;;;;10.73;6.18;;;5.20;57.60;;;;;;5027243;28;20181;-91
2021/04/03 00:58:08;;;;;;;10.20;5.17;;;8.50;65.00;;;;;;5027216;28;20185;-90
2021/04/03 01:00:34;;;;;;;12.77;5.40;;;8.40;59.30;;;;;;5026715;28;20420;-89
2021/04/03 01:02:59;;;;;;;14.30;5.23;;;6.90;63.80;;;;;;5030208;28;20314;-90
2021/04/03 01:05:27;;;;;;;9.47;4.27;;;8.40;62.90;;;;;;5023517;28;20169;-90
2021/04/03 01:07:53;;;;;;;10.32;6.65;;;8.20;63.60;;;;;;5025555;28;20185;-88
2021/04/03 01:10:27;;;;;;;13.65;4.45;;;7.00;59.70;;;;;;5020767;28;20533;-89
2021/04/03 01:13:08;;;;;;;12.68;4.50;;;7.60;62.20;;;;;;5025380;28;20264;-90
2021/04/03 01:15:51;;;;;;;18.60;4.35;;;7.60;59.80;;;;;;5023271;28;20255;-90
2021/04/03 01:18:26;;;;;;;10.40;3.83;;;7.30;62.10;;;;;;5021264;28;20540;-91
2021/04/03 01:21:06;;;;;;;9.07;3.67;;;6.50;60.10;;;;;;5020230;28;20168;-90
2021/04/03 01:23:51;;;;;;;16.98;4.40;;;5.10;60.60;;;;;;5021412;28;20208;-90
2021/04/03 01:26:34;;;;;;;10.77;3.65;;;6.50;64.30;;;;;;5016529;28;20252;-90
2021/04/03 01:29:14;;;;;;;5.87;3.27;;;7.60;61.80;;;;;;5017130;28;20176;-89
2021/04/03 01:31:40;;;;;;;11.13;4.18;;;6.30;60.00;;;;;;5019676;28;20503;-90
2021/04/03 01:34:14;;;;;;;9.60;3.67;;;5.80;62.00;;;;;;5017285;28;20596;-90
2021/04/03 01:36:43;;;;;;;11.93;4.68;;;8.50;64.70;;;;;;5021384;28;20168;-89
2021/04/03 01:39:16;;;;;;;9.10;3.75;;;5.50;61.20;;;;;;5025345;28;20211;-90
2021/04/03 01:41:45;;;;;;;10.18;5.07;;;8.70;64.80;;;;;;5025661;28;20537;-92
2021/04/03 01:44:15;;;;;;;14.85;3.67;;;7.70;64.80;;;;;;5024808;28;20268;-91
2021/04/03 01:46:46;;;;;;;15.73;4.35;;;5.20;59.20;;;;;;5023304;28;20172;-91
2021/04/03 01:49:13;;;;;;;19.02;4.97;;;4.80;62.30;;;;;;5024705;28;20191;-91
2021/04/03 01:51:48;;;;;;;13.82;3.67;;;8.00;62.70;;;;;;5025667;28;20204;-91
2021/04/03 01:54:18;;;;;;;15.30;4.25;;;7.90;61.80;;;;;;5034391;28;20168;-92
2021/04/03 01:56:49;;;;;;;13.63;4.70;;;7.80;61.90;;;;;;5038337;28;20172;-90
2021/04/03 01:59:19;;;;;;;8.53;4.07;;;10.40;65.40;;;;;;5035427;28;20212;-90
2021/04/03 02:01:49;;;;;;;6.25;3.50;;;8.10;65.30;;;;;;5010452;28;20466;-91
2021/04/03 02:04:16;;;;;;;11.13;4.97;;;7.40;63.60;;;;;;5024626;28;20283;-92
2021/04/03 02:06:44;;;;;;;19.55;4.05;;;7.70;65.90;;;;;;5025834;28;20169;-92
2021/04/03 02:09:16;;;;;;;16.42;4.90;;;5.20;59.00;;;;;;5032219;28;20173;-90
2021/04/03 02:11:50;;;;;;;8.48;3.00;;;6.80;61.90;;;;;;5032416;28;20175;-90
2021/04/03 02:14:16;;;;;;;10.52;3.70;;;7.80;61.50;;;;;;5030039;28;20168;-91
2021/04/03 02:17:01;;;;;;;10.98;3.83;;;8.00;61.00;;;;;;5026345;28;20180;-91
2021/04/03 02:19:29;;;;;;;12.68;5.57;;;6.90;58.50;;;;;;5026299;28;20278;-91
2021/04/03 02:21:57;;;;;;;11.75;4.10;;;7.30;61.30;;;;;;5018794;28;20208;-91
2021/04/03 02:24:23;;;;;;;10.85;3.58;;;6.40;59.10;;;;;;5021352;28;20176;-90
2021/04/03 02:26:49;;;;;;;8.93;3.40;;;7.50;67.20;;;;;;5019749;28;20250;-91
2021/04/03 02:29:15;;;;;;;7.27;3.50;;;4.70;64.60;;;;;;5019366;28;20525;-92
2021/04/03 02:31:41;;;;;;;12.53;4.47;;;8.40;64.70;;;;;;5018843;28;20451;-91
2021/04/03 02:34:06;;;;;;;12.10;4.53;;;8.80;63.00;;;;;;5018923;28;20423;-91
2021/04/03 02:36:32;;;;;;;11.67;3.60;;;6.60;58.40;;;;;;5018001;28;20181;-92
2021/04/03 02:39:02;;;;;;;10.70;3.97;;;6.60;66.90;;;;;;5019656;28;20180;-91
2021/04/03 02:41:36;;;;;;;9.45;2.70;;;9.20;62.30;;;;;;5006359;28;20271;-91
2021/04/03 02:44:20;;;;;;;10.38;3.28;;;8.80;61.10;;;;;;5020128;28;20188;-90
2021/04/03 02:47:15;;;;;;;11.35;3.35;;;7.10;57.40;;;;;;5020708;28;20188;-91
2021/04/03 02:49:49;;;;;;;9.43;3.63;;;6.70;61.10;;;;;;5023288;28;20192;-91
2021/04/03 02:52:16;;;;;;;11.10;3.63;;;5.70;61.00;;;;;;5024640;28;20235;-91
2021/04/03 02:54:49;;;;;;;6.10;3.47;;;6.60;63.20;;;;;;5029224;28;20172;-90
2021/04/03 02:57:16;;;;;;;20.38;3.90;;;6.30;61.80;;;;;;5030928;28;20447;-91
2021/04/03 02:59:52;;;;;;;23.90;4.13;;;9.20;68.50;;;;;;5024648;28;20687;-91
2021/04/03 03:02:23;;;;;;;15.25;3.75;;;7.80;64.50;;;;;;5023818;28;20219;-91
2021/04/03 03:04:53;;;;;;;11.63;4.25;;;7.20;59.30;;;;;;5022118;28;20172;-91
2021/04/03 03:07:22;;;;;;;7.70;3.53;;;8.10;63.90;;;;;;5024218;28;20169;-92
2021/04/03 03:09:49;;;;;;;11.98;3.47;;;6.20;62.20;;;;;;5021938;28;20169;-91
2021/04/03 03:12:21;;;;;;;18.42;5.38;;;7.10;63.90;;;;;;5022891;28;20200;-89
2021/04/03 03:14:48;;;;;;;12.80;4.00;;;7.30;64.30;;;;;;5021070;28;20168;-90
2021/04/03 03:17:15;;;;;;;14.13;4.22;;;8.20;61.70;;;;;;5024998;28;20172;-88
2021/04/03 03:19:41;;;;;;;6.82;3.88;;;7.30;61.00;;;;;;5027795;28;20199;-90
2021/04/03 03:22:08;;;;;;;14.75;3.78;;;8.20;62.70;;;;;;5033272;28;20264;-90
2021/04/03 03:24:34;;;;;;;7.97;3.63;;;5.10;59.20;;;;;;5033232;28;20169;-90
2021/04/03 03:27:01;;;;;;;12.88;3.25;;;8.80;63.80;;;;;;5024932;28;20168;-90
2021/04/03 03:29:28;;;;;;;9.95;3.85;;;7.20;62.00;;;;;;5021131;28;20180;-91
2021/04/03 03:31:54;;;;;;;15.52;4.18;;;8.50;62.60;;;;;;5018354;28;20180;-89
2021/04/03 03:34:21;;;;;;;15.35;4.78;;;5.70;60.00;;;;;;5020365;28;20161;-91
2021/04/03 03:36:47;;;;;;;9.55;3.30;;;5.50;58.70;;;;;;5019581;28;20267;-90
2021/04/03 03:39:13;;;;;;;13.93;4.70;;;7.50;64.30;;;;;;5022767;28;20175;-91
2021/04/03 03:41:40;;;;;;;14.02;3.90;;;9.10;64.50;;;;;;5020689;28;20405;-90
2021/04/03 03:44:07;;;;;;;10.68;3.45;;;9.60;63.60;;;;;;5021133;28;20177;-89
2021/04/03 03:46:33;;;;;;;5.60;2.97;;;6.50;58.60;;;;;;5021627;28;20175;-89
2021/04/03 03:48:59;;;;;;;6.25;2.90;;;6.60;62.00;;;;;;5020120;28;20557;-91
2021/04/03 03:51:25;;;;;;;11.55;3.75;;;5.70;58.70;;;;;;5016272;28;20175;-91
2021/04/03 03:53:51;;;;;;;10.73;3.30;;;5.40;58.40;;;;;;5020202;28;20180;-89
2021/04/03 03:56:16;;;;;;;13.23;3.97;;;7.30;68.50;;;;;;5018111;28;20239;-89
2021/04/03 03:58:43;;;;;;;11.30;4.20;;;7.00;64.00;;;;;;5018332;28;20466;-89
2021/04/03 04:01:09;;;;;;;17.30;4.20;;;8.00;59.80;;;;;;5016636;28;20169;-90
2021/04/03 04:03:35;;;;;;;17.10;4.03;;;7.20;63.90;;;;;;5016411;28;20212;-90
2021/04/03 04:06:01;;;;;;;10.60;4.60;;;5.20;59.50;;;;;;5017565;28;20176;-90
2021/04/03 04:08:27;;;;;;;9.52;3.50;;;8.70;60.10;;;;;;5017374;28;20176;-90
2021/04/03 04:10:53;;;;;;;14.00;3.37;;;4.40;59.00;;;;;;5017239;28;20310;-89
2021/04/03 04:13:18;;;;;;;13.65;4.60;;;4.90;59.00;;;;;;5018127;28;20172;-91
2021/04/03 04:15:45;;;;;;;12.67;3.97;;;8.40;63.70;;;;;;5016479;28;20536;-90
2021/04/03 04:18:11;;;;;;;16.60;5.00;;;8.60;60.10;;;;;;5017602;28;20235;-91
2021/04/03 04:20:37;;;;;;;15.47;3.63;;;8.80;68.30;;;;;;5017836;28;20184;-91
2021/04/03 04:23:03;;;;;;;13.43;2.90;;;4.40;61.30;;;;;;5020553;28;20215;-89
2021/04/03 04:25:29;;;;;;;10.02;3.40;;;7.60;61.20;;;;;;5023856;28;20180;-90
2021/04/03 04:27:54;;;;;;;16.47;4.23;;;5.60;62.80;;;;;;5021798;28;20172;-90
2021/04/03 04:30:21;;;;;;;13.73;4.50;;;5.00;61.30;;;;;;5019096;28;20222;-91
2021/04/03 04:32:48;;;;;;;11.60;3.58;;;6.80;65.50;;;;;;5018745;28;20242;-91
2021/04/03 04:35:15;;;;;;;12.75;3.65;;;6.80;59.60;;;;;;5021075;28;20169;-90
2021/04/03 04:37:42;;;;;;;16.63;4.47;;;5.70;66.20;;;;;;5017628;28;20181;-91
2021/04/03 04:40:10;;;;;;;12.98;3.97;;;8.50;67.00;;;;;;5017360;28;20179;-91
2021/04/03 04:42:39;;;;;;;8.57;3.58;;;7.40;59.40;;;;;;5015921;28;20702;-91
2021/04/03 04:45:07;;;;;;;7.28;3.20;;;8.00;60.00;;;;;;5019927;28;20185;-90
2021/04/03 04:47:32;;;;;;;7.90;3.22;;;6.60;58.70;;;;;;5020415;28;20169;-91
2021/04/03 04:50:01;;;;;;;9.60;4.20;;;7.80;67.60;;;;;;5017568;28;20242;-90
2021/04/03 04:52:27;;;;;;;14.05;3.75;;;8.10;59.30;;;;;;5019901;28;20169;-90
2021/04/03 04:54:53;;;;;;;15.70;3.92;;;5.80;61.20;;;;;;5021183;28;20260;-90
2021/04/03 04:57:19;;;;;;;17.37;6.03;;;4.90;63.80;;;;;;5019294;28;20192;-90
2021/04/03 04:59:44;;;;;;;14.10;4.60;;;8.20;64.80;;;;;;5020436;28;20555;-90
2021/04/03 05:02:10;;;;;;;10.30;3.83;;;7.40;71.00;;;;;;5020609;28;20213;-91
2021/04/03 05:04:36;;;;;;;8.97;3.97;;;5.60;62.70;;;;;;5021059;28;20171;-90
2021/04/03 05:07:01;;;;;;;15.53;4.30;;;8.40;67.90;;;;;;5020941;28;20768;-90
2021/04/03 05:09:27;;;;;;;13.73;4.27;;;7.00;66.00;;;;;;5019916;28;20180;-91
2021/04/03 05:11:55;;;;;;;12.20;4.90;;;4.70;61.50;;;;;;5028222;28;20180;-89
2021/04/03 05:14:21;;;;;;;17.75;5.63;;;5.60;63.90;;;;;;5028195;28;20180;-89
2021/04/03 05:16:46;;;;;;;16.90;5.37;;;7.40;71.40;;;;;;5027628;28;20180;-91
2021/04/03 05:19:12;;;;;;;14.37;5.40;;;5.80;61.90;;;;;;5026772;28;20179;-91
2021/04/03 05:21:39;;;;;;;11.23;4.10;;;5.90;63.00;;;;;;5026667;28;20642;-85
2021/04/03 05:24:05;;;;;;;13.90;5.38;;;6.10;61.90;;;;;;5026565;28;20216;-90
2021/04/03 05:26:30;;;;;;;12.23;5.20;;;5.90;62.10;;;;;;5026644;28;20184;-90
2021/04/03 05:28:56;;;;;;;8.57;4.97;;;6.00;62.30;;;;;;5026025;28;20172;-90
2021/04/03 05:31:22;;;;;;;12.50;4.77;;;8.70;69.80;;;;;;5028775;28;20195;-90
2021/04/03 05:33:48;;;;;;;15.73;5.30;;;6.80;74.10;;;;;;5026848;28;20172;-91
2021/04/03 05:36:14;;;;;;;19.02;6.13;;;8.60;67.30;;;;;;5027042;28;20253;-90
2021/04/03 05:38:40;;;;;;;18.30;5.67;;;6.10;62.10;;;;;;5025651;28;20246;-90
2021/04/03 05:41:06;;;;;;;21.38;5.30;;;8.20;68.40;;;;;;5024215;28;20445;-90
2021/04/03 05:43:34;;;;;;;11.20;4.93;;;5.20;62.20;;;;;;5025285;28;20208;-90
2021/04/03 05:46:03;;;;;;;14.60;4.32;;;6.60;64.10;;;;;;5023963;28;20180;-91
2021/04/03 05:48:29;;;;;;;13.85;5.25;;;5.10;64.40;;;;;;5025293;28;20179;-91
2021/04/03 05:50:57;;;;;;;15.30;5.05;;;5.60;62.50;;;;;;5025566;28;20204;-91
2021/04/03 05:53:23;;;;;;;13.35;4.22;;;6.30;65.80;;;;;;5025177;28;20172;-90
2021/04/03 05:55:56;;;;;;;12.50;5.07;;;6.20;62.40;;;;;;5023137;28;20505;-91
2021/04/03 05:58:22;;;;;;;10.88;4.20;;;8.00;67.10;;;;;;5020374;28;20179;-91
2021/04/03 06:00:50;;;;;;;15.73;4.80;;;8.00;66.30;;;;;;5019839;28;20177;-90
2021/04/03 06:03:16;;;;;;;15.00;4.85;;;6.60;61.20;;;;;;5023598;28;20467;-91
2021/04/03 06:05:43;;;;;;;13.53;4.50;;;6.30;60.00;;;;;;5021867;28;20196;-91
2021/04/03 06:08:09;;;;;;;16.35;4.65;;;7.00;59.00;;;;;;5019061;28;20164;-91
2021/04/03 06:10:35;;;;;;;12.23;4.28;;;8.70;60.50;;;;;;5018773;28;20234;-91
2021/04/03 06:13:01;;;;;;;12.43;5.50;;;9.90;58.00;;;;;;5016734;28;20535;-91
2021/04/03 06:15:27;;;;;;;11.00;4.60;;;9.00;56.80;;;;;;5019832;28;20423;-92
2021/04/03 06:17:56;;;;;;;20.30;7.13;;;10.60;56.80;;;;;;5025241;28;20451;-91
2021/04/03 06:20:34;;;;;;;14.00;4.13;;;9.70;53.90;;;;;;5026091;28;20188;-90
2021/04/03 06:23:00;;;;;;;12.37;5.20;;;9.80;52.80;;;;;;5022400;28;20481;-91
2021/04/03 06:25:26;;;;;;;12.63;4.43;;;9.70;52.80;;;;;;5016388;28;20895;-90
2021/04/03 06:28:08;;;;;;;15.63;6.30;;;9.70;52.50;;;;;;5016099;28;20416;-89
2021/04/03 06:30:38;;;;;;;10.80;4.50;;;10.40;50.80;;;;;;5014602;28;20407;-91
2021/04/03 06:33:18;;;;;;;20.40;5.30;;;10.30;50.90;;;;;;5015999;28;20437;-90
2021/04/03 06:35:45;;;;;;;18.73;4.40;;;10.60;52.60;;;;;;5015512;28;20419;-90
2021/04/03 06:38:22;;;;;;;11.50;4.40;;;11.00;53.40;;;;;;5015749;28;20907;-89
2021/04/03 06:40:49;;;;;;;17.33;6.00;;;11.40;55.20;;;;;;5021159;28;20485;-85
2021/04/03 06:43:18;;;;;;;14.27;5.10;;;10.80;55.80;;;;;;5015080;28;20506;-84
2021/04/03 06:45:45;;;;;;;14.00;5.03;;;11.40;55.50;;;;;;4310127;28;10000736;-83
2021/04/03 06:48:14;;;;;;;9.10;4.30;;;11.70;54.20;;;;;;4992639;28;20519;-84
2021/04/03 06:50:45;;;;;;;13.60;4.70;;;;;;;;;;4993312;28;20848;-83
2021/04/03 06:53:15;;;;;;;12.53;3.73;;;;;;;;;;4992480;28;20483;-82
2021/04/03 06:55:44;;;;;;;12.93;4.47;;;12.20;66.70;;;;;;4992007;28;20459;-83
2021/04/03 06:58:11;;;;;;;12.07;4.60;;;12.10;62.30;;;;;;4992586;28;20920;-89
2021/04/03 07:00:38;;;;;;;12.20;4.67;;;12.10;61.80;;;;;;4992805;28;20464;-88
2021/04/03 07:03:20;;;;;;;23.13;5.40;;;12.00;64.60;;;;;;4994430;28;20534;-89
2021/04/03 07:05:46;;;;;;;21.30;5.87;;;11.60;67.10;;;;;;5025884;28;20416;-88
2021/04/03 07:08:20;;;;;;;14.40;5.37;;;11.50;67.90;;;;;;5027751;28;20420;-91
2021/04/03 07:10:49;;;;;;;13.47;5.33;;;12.00;72.30;;;;;;5028819;28;20193;-90
2021/04/03 07:13:19;;;;;;;12.07;4.80;;;13.10;66.50;;;;;;5016269;28;20455;-90
2021/04/03 07:16:29;;;;;;;13.63;6.07;;;11.90;59.90;;;;;;5014895;28;20451;-87
2021/04/03 07:18:56;;;;;;;19.50;5.73;;;11.50;60.70;;;;;;5231249;23;20494;-88
2021/04/03 07:21:22;;;;;;;12.80;6.00;;;11.00;66.70;;;;;;5354445;22;20487;-88
2021/04/03 07:23:50;;;;;;;12.53;5.70;;;10.70;70.30;;;;;;5290150;22;20483;-91
2021/04/03 07:26:37;;;;;;;17.03;7.57;;;10.60;71.40;;;;;;5031003;28;20419;-92
2021/04/03 07:29:06;;;;;;;14.80;7.97;;;11.00;64.50;;;;;;5033190;28;20427;-89
2021/04/03 07:31:46;;;;;;;14.60;6.40;;;11.20;63.50;;;;;;5015057;28;20424;-91
2021/04/03 07:34:12;;;;;;;19.30;6.97;;;12.10;74.00;;;;;;5027903;28;20818;-88
2021/04/03 07:36:43;;;;;;;15.90;5.80;;;;;;;;;;5027681;28;20474;-88
2021/04/03 07:39:35;;;;;;;13.80;7.63;;;12.50;55.50;;;;;;5018377;28;20952;-89
2021/04/03 07:42:01;;;;;;;16.53;6.83;;;13.30;57.10;;;;;;5030114;28;20427;-92
2021/04/03 07:44:34;;;;;;;11.87;7.87;;;13.20;54.90;;;;;;5026102;28;20455;-89
2021/04/03 07:47:21;;;;;;;16.67;7.13;;;13.30;56.30;;;;;;5026159;28;20442;-90
2021/04/03 07:49:52;;;;;;;20.33;10.00;;;13.30;58.70;;;;;;5025639;28;20420;-90
2021/04/03 07:52:53;;;;;;;17.63;10.10;;;12.60;55.90;;;;;;5020799;28;20494;-88
2021/04/03 07:55:36;;;;;;;20.43;12.00;;;12.30;54.10;;;;;;5022257;28;20404;-90
2021/04/03 07:58:20;;;;;;;21.07;11.97;;;11.30;51.30;;;;;;5017707;28;20480;-89
2021/04/03 08:00:46;;;;;;;18.23;11.23;;;11.20;51.40;;;;;;5013391;28;20430;-91
2021/04/03 08:03:14;;;;;;;14.07;10.80;;;12.50;50.40;;;;;;4997286;28;20479;-88
2021/04/03 08:05:40;;;;;;;14.37;9.40;;;13.00;59.90;;;;;;5019113;28;20471;-90
2021/04/03 08:08:08;;;;;;;15.10;12.10;;;13.80;46.80;;;;;;5016055;28;20424;-90
2021/04/03 08:21:04;;;;;;;19.87;13.43;;;14.60;42.00;;;;;;5325474;23;20486;-89
2021/04/03 08:26:05;;;;;;;15.73;11.93;;;14.60;42.40;;;;;;5258058;22;20549;-88
2021/04/03 08:28:32;;;;;;;20.10;15.17;;;15.40;43.30;;;;;;5014900;28;20427;-91
2021/04/03 08:30:59;;;;;;;21.50;15.57;;;;;;;;;;5016734;28;20180;-89
2021/04/03 08:33:31;;;;;;;17.67;13.27;;;16.00;55.70;;;;;;5018223;28;20491;-89
2021/04/03 08:35:58;;;;;;;19.47;13.83;;;15.70;56.00;;;;;;5028637;28;20416;-87
2021/04/03 08:38:25;;;;;;;16.90;13.17;;;15.50;56.30;;;;;;5025616;28;20416;-89
2021/04/03 08:40:55;;;;;;;25.33;13.97;;;15.80;56.00;;;;;;5018644;28;20735;-89
2021/04/03 08:43:23;;;;;;;18.40;12.87;;;16.10;56.60;;;;;;5021463;28;20519;-87
2021/04/03 08:45:52;;;;;;;17.63;14.27;;;16.90;41.90;;;;;;5020527;28;20410;-90
2021/04/03 08:48:18;;;;;;;18.33;13.90;;;16.50;42.30;;;;;;5024366;28;20498;-88
2021/04/03 08:50:46;;;;;;;18.57;14.67;;;17.30;44.30;;;;;;5026023;28;20949;-88
2021/04/03 08:53:12;;;;;;;18.33;11.80;;;;;;;;;;5024045;28;20177;-90
2021/04/03 08:55:38;;;;;;;16.27;13.30;;;17.10;50.70;;;;;;5023222;28;20419;-88
2021/04/03 08:58:06;;;;;;;19.90;14.20;;;;;;;;;;5004317;28;20427;-89
2021/04/03 09:00:32;;;;;;;17.13;14.80;;;18.00;31.60;;;;;;5022765;28;20169;-89
2021/04/03 09:02:59;;;;;;;25.10;18.10;;;20.30;32.30;;;;;;5021619;28;20487;-88
2021/04/03 09:05:26;;;;;;;23.80;18.33;;;17.40;43.60;;;;;;5018111;28;20463;-90
2021/04/03 09:07:53;;;;;;;24.33;19.43;;;16.90;42.70;;;;;;5009603;28;20443;-89
2021/04/03 09:10:23;;;;;;;25.47;19.80;;;15.40;55.50;;;;;;5019354;28;20500;-90
2021/04/03 09:12:49;;;;;;;22.33;19.93;;;15.00;56.70;;;;;;5016405;28;20416;-90
2021/04/03 09:15:35;;;;;;;22.23;19.80;;;15.90;56.70;;;;;;5022426;28;20414;-92
2021/04/03 09:18:01;;;;;;;23.40;20.90;;;;;;;;;;5023407;28;20431;-87
2021/04/03 09:20:36;;;;;;;21.63;19.30;;;17.10;51.70;;;;;;5027761;28;20422;-91
2021/04/03 09:23:06;;;;;;;21.63;19.53;;;17.60;51.20;;;;;;5026769;28;20467;-92
2021/04/03 09:25:35;;;;;;;26.73;19.03;;;17.00;50.40;;;;;;5022246;28;20466;-90
2021/04/03 09:28:10;;;;;;;23.10;18.67;;;16.70;49.80;;;;;;5024000;28;20415;-91
2021/04/03 09:30:40;;;;;;;21.03;18.20;;;16.80;49.10;;;;;;5024287;28;20419;-89
2021/04/03 09:33:19;;;;;;;24.00;20.60;;;16.80;49.60;;;;;;5016136;28;20412;-88
2021/04/03 09:35:45;;;;;;;29.80;21.90;;;18.00;50.40;;;;;;5016422;28;20946;-88
2021/04/03 09:38:11;;;;;;;24.23;19.93;;;16.40;50.40;;;;;;5013708;28;20428;-89
2021/04/03 09:40:42;;;;;;;24.80;18.63;;;;;;;;;;5007171;28;20439;-89
2021/04/03 09:43:09;;;;;;;29.67;21.23;;;15.80;54.10;;;;;;5014860;28;20994;-89
2021/04/03 09:45:37;;;;;;;24.30;19.27;;;16.30;46.40;;;;;;5015729;28;20455;-89
2021/04/03 09:48:03;;;;;;;24.43;20.10;;;14.80;46.00;;;;;;5016745;28;20458;-88
2021/04/03 09:50:29;;;;;;;28.37;20.47;;;15.20;46.20;;;;;;5016795;28;20458;-89
2021/04/03 09:52:55;;;;;;;23.90;18.20;;;14.90;45.50;;;;;;5016337;28;20428;-87
2021/04/03 09:55:21;;;;;;;24.90;19.03;;;13.90;46.30;;;;;;5014843;28;20173;-87
2021/04/03 09:57:47;;;;;;;27.47;18.67;;;14.30;46.90;;;;;;5015507;28;20457;-85
2021/04/03 10:00:13;;;;;;;23.70;18.13;;;14.10;47.50;;;;;;5020903;28;20416;-89
2021/04/03 10:02:40;;;;;;;29.20;20.80;;;14.40;47.60;;;;;;5017054;28;20196;-84
2021/04/03 10:05:06;;;;;;;26.57;20.60;;;14.20;46.60;;;;;;5014054;28;20917;-85
2021/04/03 10:07:32;;;;;;;26.43;21.57;;;15.50;46.00;;;;;;5015475;28;20196;-85
2021/04/03 10:09:57;;;;;;;29.30;23.30;;;16.00;44.10;;;;;;5014904;28;20404;-83
2021/04/03 10:12:23;;;;;;;29.07;22.40;;;16.50;44.40;;;;;;5019750;28;20177;-88
2021/04/03 10:14:49;;;;;;;34.23;24.60;;;16.30;43.30;;;;;;5017405;28;20177;-90
2021/04/03 10:17:15;;;;;;;28.27;21.00;;;15.80;43.80;;;;;;5018737;28;20172;-87
2021/04/03 10:19:41;;;;;;;28.60;21.50;;;15.30;44.50;;;;;;4324322;28;10000731;-89
2021/04/03 10:22:07;;;;;;;31.13;22.63;;;15.00;45.40;;;;;;5014385;28;20632;-87
2021/04/03 10:24:32;;;;;;;35.13;26.40;;;14.70;46.00;;;;;;5015878;28;20424;-88
2021/04/03 10:26:58;;;;;;;31.27;24.63;;;16.10;46.50;;;;;;5012980;28;20189;-88
2021/04/03 10:29:23;;;;;;;33.80;27.13;;;16.20;48.40;;;;;;5013495;28;20181;-86
2021/04/03 10:31:55;;;;;;;27.87;24.70;;;16.00;46.70;;;;;;4997300;28;20188;-87
2021/04/03 10:34:20;;;;;;;31.30;26.27;;;15.50;47.00;;;;;;5017988;28;20184;-92
2021/04/03 10:36:49;;;;;;;33.67;25.30;;;16.30;46.70;;;;;;5020491;28;20411;-87
2021/04/03 10:39:19;;;;;;;34.27;25.57;;;16.80;47.80;;;;;;5029057;28;20165;-89
2021/04/03 10:41:45;;;;;;;32.27;26.40;;;14.50;47.50;;;;;;5027649;28;20463;-90
2021/04/03 10:44:14;;;;;;;38.17;29.87;;;13.60;42.30;;;;;;5012177;28;20475;-89
2021/04/03 10:46:40;;;;;;;33.43;27.63;;;13.60;46.90;;;;;;5022500;28;20434;-87
2021/04/03 10:49:06;;;;;;;33.20;26.50;;;13.40;44.70;;;;;;5001218;28;20427;-85
2021/04/03 10:51:31;;;;;;;34.00;24.83;;;14.30;42.70;;;;;;5013407;28;20842;-85
2021/04/03 10:53:57;;;;;;;31.20;24.60;;;13.00;40.90;;;;;;5015769;28;20207;-85
2021/04/03 10:56:22;;;;;;;28.73;22.70;;;14.40;41.20;;;;;;5014407;28;20176;-84
2021/04/03 10:58:48;;;;;;;28.90;21.57;;;15.00;39.80;;;;;;5012716;28;20192;-83
2021/04/03 11:01:14;;;;;;;24.73;19.60;;;18.20;40.90;;;;;;5013894;28;20298;-84
2021/04/03 11:03:43;;;;;;;24.10;20.00;;;16.20;39.80;;;;;;5023085;28;20220;-91
2021/04/03 11:06:17;;;;;;;27.83;21.80;;;17.10;40.50;;;;;;5031168;28;20332;-89
2021/04/03 11:08:44;;;;;;;27.00;22.67;;;16.70;40.00;;;;;;5030429;28;20419;-91
2021/04/03 11:11:12;;;;;;;26.80;22.13;;;17.90;44.80;;;;;;5128620;22;20492;-93
2021/04/03 11:13:43;;;;;;;28.00;21.07;;;15.90;40.10;;;;;;5072505;28;20243;-89
2021/04/03 11:16:12;;;;;;;28.23;22.73;;;17.70;40.50;;;;;;5070059;28;20438;-91
2021/04/03 11:18:38;;;;;;;31.83;22.67;;;16.70;39.10;;;;;;5069301;28;20409;-91
2021/04/03 11:21:09;;;;;;;26.70;22.50;;;16.70;43.50;;;;;;5069705;28;20433;-91
2021/04/03 11:23:45;;;;;;;28.37;22.33;;;16.90;42.30;;;;;;4721933;28;9999988;-90
2021/04/03 11:26:11;;;;;;;51.87;37.43;;;15.90;40.80;;;;;;5062365;28;20191;-88
2021/04/03 11:28:37;;;;;;;26.27;22.50;;;17.10;41.90;;;;;;5049276;28;20449;-89
2021/04/03 11:31:05;;;;;;;26.50;23.50;;;19.40;41.60;;;;;;5049893;28;20294;-90
2021/04/03 11:33:33;;;;;;;31.00;22.43;;;17.90;40.80;;;;;;5044556;28;20171;-92
2021/04/03 11:35:58;;;;;;;23.77;20.97;;;17.50;42.60;;;;;;5046179;28;20411;-92
2021/04/03 11:38:24;;;;;;;24.33;21.20;;;19.70;42.20;;;;;;5044992;28;20460;-93
2021/04/03 11:40:54;;;;;;;25.23;22.17;;;20.60;52.20;;;;;;5047082;28;20180;-92
2021/04/03 11:43:21;;;;;;;26.10;23.27;;;20.50;51.70;;;;;;5047948;28;20302;-88
2021/04/03 11:45:56;;;;;;;21.40;19.13;;;18.80;38.20;;;;;;5048812;28;20436;-92
2021/04/03 11:48:22;;;;;;;19.23;17.30;;;18.20;40.90;;;;;;5046703;28;20442;-90
2021/04/03 11:51:17;;;;;;;19.90;17.80;;;18.20;38.50;;;;;;5052007;28;20395;-88
2021/04/03 11:53:43;;;;;;;19.43;17.37;;;;;;;;;;5040285;28;20264;-94
2021/04/03 11:56:35;;;;;;;21.50;17.40;;;19.90;36.50;;;;;;5051477;28;20403;-95
2021/04/03 11:59:08;;;;;;;20.73;18.70;;;22.80;35.10;;;;;;5049451;28;20494;-90
2021/04/03 12:01:37;;;;;;;28.40;20.73;;;22.20;33.50;;;;;;5050785;28;20423;-91
2021/04/03 12:04:03;;;;;;;25.13;20.80;;;20.50;38.10;;;;;;5036381;28;20471;-89
2021/04/03 12:06:39;;;;;;;21.93;19.73;;;20.50;37.70;;;;;;5070238;28;20468;-91
2021/04/03 12:09:05;;;;;;;21.40;19.20;;;20.30;37.30;;;;;;5065477;28;20438;-89
2021/04/03 12:14:51;;;;;;;21.40;19.13;;;20.10;32.10;;;;;;5014003;28;20962;-90
2021/04/03 12:17:17;;;;;;;20.03;18.20;;;20.30;34.50;;;;;;5007686;28;20433;-93
2021/04/03 12:19:43;;;;;;;20.03;18.13;;;19.90;32.60;;;;;;5067149;28;20178;-91
2021/04/03 12:22:11;;;;;;;19.30;17.67;;;20.90;31.60;;;;;;5065999;28;20190;-88
2021/04/03 12:24:41;;;;;;;19.60;17.73;;;19.10;31.40;;;;;;5068199;28;20189;-88
2021/04/03 12:27:07;;;;;;;18.27;16.70;;;17.50;30.50;;;;;;5052942;28;20418;-90
2021/04/03 12:29:35;;;;;;;29.20;20.20;;;18.50;30.70;;;;;;5066427;28;20796;-93
2021/04/03 12:32:02;;;;;;;32.47;29.00;;;19.80;32.70;;;;;;5066406;28;20408;-92
2021/04/03 12:35:01;;;;;;;18.50;16.20;;;20.70;39.90;;;;;;5066817;28;20398;-92
2021/04/03 12:37:35;;;;;;;17.07;15.67;;;21.50;39.80;;;;;;5070728;28;20398;-90
2021/04/03 12:40:11;;;;;;;17.00;15.07;;;19.50;28.10;;;;;;5073335;28;20433;-91
2021/04/03 12:42:46;;;;;;;20.43;18.03;;;20.60;29.80;;;;;;5072206;28;20497;-89
2021/04/03 12:45:12;;;;;;;17.77;16.07;;;20.80;31.40;;;;;;5071865;28;20413;-92
2021/04/03 12:47:38;;;;;;;18.20;16.43;;;15.50;35.50;;;;;;5054979;28;20501;-93
2021/04/03 12:50:05;;;;;;;18.23;15.50;;;18.50;40.80;;;;;;5070433;28;20421;-90
2021/04/03 12:52:36;;;;;;;17.00;14.13;;;18.40;37.90;;;;;;5073028;28;20167;-89
2021/04/03 12:55:06;;;;;;;13.33;12.03;;;17.60;40.00;;;;;;5070876;28;20429;-91
2021/04/03 12:57:32;;;;;;;14.33;12.93;;;20.50;31.00;;;;;;5062816;28;20493;-90
2021/04/03 13:00:06;;;;;;;14.37;12.90;;;20.40;31.20;;;;;;5068224;28;20519;-94
2021/04/03 13:02:32;;;;;;;15.50;13.47;;;19.90;45.00;;;;;;5050510;28;20536;-90
2021/04/03 13:04:57;;;;;;;17.87;13.50;;;19.20;37.50;;;;;;5036655;28;20470;-89
2021/04/03 13:07:23;;;;;;;15.73;12.50;;;18.90;39.00;;;;;;5039666;28;20303;-90